Time;durP1;ratioP1;P1;durP2;ratioP2;P2;SDS_P1;SDS_P2;PMS_P1;PMS_P2;Temp;Humidity;BMP_temperature;BMP_pressure;BME280_temperature;BME280_humidity;BME280_pressure;Samples;Min_cycle;Max_cycle;Signal;HPM_P1;HPM_P2
2021/07/24 00:02:03;;;;;;;11.57;9.00;;;16.80;99.90;;;;;;4953580;29;20209;-74
2021/07/24 00:04:29;;;;;;;15.07;9.53;;;16.80;99.90;;;;;;4953536;29;20645;-74
2021/07/24 00:06:54;;;;;;;12.07;8.70;;;16.80;99.90;;;;;;4969430;28;20209;-74
2021/07/24 00:09:20;;;;;;;15.33;9.70;;;16.80;99.90;;;;;;4953127;28;20188;-74
2021/07/24 00:11:45;;;;;;;13.70;9.43;;;16.80;99.90;;;;;;4953447;29;20185;-74
2021/07/24 00:14:11;;;;;;;10.03;8.30;;;16.80;99.90;;;;;;4953521;28;20569;-74
2021/07/24 00:16:36;;;;;;;13.63;8.67;;;16.70;99.90;;;;;;4953345;29;20237;-74
2021/07/24 00:19:02;;;;;;;11.43;8.97;;;16.70;99.90;;;;;;4953166;29;20207;-74
2021/07/24 00:21:27;;;;;;;13.83;9.23;;;16.70;99.90;;;;;;4953284;29;20300;-74
2021/07/24 00:23:53;;;;;;;12.50;8.90;;;16.70;99.90;;;;;;4953614;29;20173;-74
2021/07/24 00:26:18;;;;;;;11.67;8.70;;;16.70;99.90;;;;;;4954599;29;20206;-74
2021/07/24 00:28:44;;;;;;;12.40;8.63;;;16.60;99.90;;;;;;4937159;29;20189;-74
2021/07/24 00:31:10;;;;;;;10.13;7.77;;;16.60;99.90;;;;;;4952633;28;20188;-74
2021/07/24 00:33:36;;;;;;;12.80;8.70;;;16.60;99.90;;;;;;4953291;29;20189;-74
2021/07/24 00:36:02;;;;;;;13.17;8.63;;;16.60;99.90;;;;;;4953328;28;20236;-74
2021/07/24 00:38:27;;;;;;;13.70;8.50;;;16.60;99.90;;;;;;4954579;28;20224;-74
2021/07/24 00:40:59;;;;;;;12.60;8.20;;;16.50;99.90;;;;;;4953086;29;20689;-74
2021/07/24 00:43:28;;;;;;;12.63;8.80;;;16.60;99.90;;;;;;4953375;29;20629;-74
2021/07/24 00:45:55;;;;;;;12.63;8.77;;;16.50;99.90;;;;;;4953372;29;20276;-74
2021/07/24 00:48:21;;;;;;;12.03;8.67;;;16.50;99.90;;;;;;4953208;29;20181;-74
2021/07/24 00:50:48;;;;;;;12.20;9.07;;;16.50;99.90;;;;;;4953521;29;20180;-74
2021/07/24 00:53:20;;;;;;;12.30;8.77;;;16.40;99.90;;;;;;4953022;29;20236;-74
2021/07/24 00:55:47;;;;;;;12.43;8.33;;;16.40;99.90;;;;;;4954168;28;20330;-74
2021/07/24 00:58:32;;;;;;;9.63;8.07;;;16.40;99.90;;;;;;4952908;29;20177;-74
2021/07/24 01:00:58;;;;;;;12.93;8.73;;;16.40;99.90;;;;;;4952592;29;20194;-74
2021/07/24 01:03:23;;;;;;;12.37;8.53;;;16.40;99.90;;;;;;4952738;29;20582;-74
2021/07/24 01:05:54;;;;;;;12.20;9.07;;;16.30;99.90;;;;;;4952714;29;20236;-74
2021/07/24 01:08:19;;;;;;;12.03;8.23;;;16.30;99.90;;;;;;4952724;29;20692;-74
2021/07/24 01:10:46;;;;;;;11.67;8.77;;;16.30;99.90;;;;;;4952392;29;20206;-75
2021/07/24 01:13:16;;;;;;;12.13;8.60;;;16.20;99.90;;;;;;4952761;28;20201;-75
2021/07/24 01:15:48;;;;;;;11.83;8.50;;;16.20;99.90;;;;;;4953769;28;20205;-74
2021/07/24 01:18:14;;;;;;;11.97;8.17;;;16.20;99.90;;;;;;4953038;29;20576;-74
2021/07/24 01:20:43;;;;;;;14.43;8.90;;;16.20;99.90;;;;;;4952362;29;20212;-74
2021/07/24 01:23:09;;;;;;;9.83;7.67;;;16.20;99.90;;;;;;4952486;29;20252;-74
2021/07/24 01:25:59;;;;;;;10.43;8.03;;;16.20;99.90;;;;;;4952389;29;20348;-74
2021/07/24 01:28:34;;;;;;;10.97;8.10;;;16.20;99.90;;;;;;4952550;29;20202;-74
2021/07/24 01:31:02;;;;;;;11.70;8.07;;;16.10;99.90;;;;;;4952405;29;20170;-74
2021/07/24 01:33:27;;;;;;;13.50;8.50;;;16.20;99.90;;;;;;4952296;29;20321;-74
2021/07/24 01:35:53;;;;;;;12.83;8.07;;;16.20;99.90;;;;;;4952279;29;20296;-74
2021/07/24 01:38:19;;;;;;;11.07;8.00;;;16.10;99.90;;;;;;4953601;29;20249;-74
2021/07/24 01:40:45;;;;;;;10.70;8.00;;;16.10;99.90;;;;;;4952103;29;20222;-74
2021/07/24 01:43:10;;;;;;;12.03;8.40;;;16.10;99.90;;;;;;4955701;28;20309;-74
2021/07/24 01:45:37;;;;;;;9.93;7.77;;;16.10;99.90;;;;;;4955891;29;20288;-73
2021/07/24 01:48:05;;;;;;;11.17;7.90;;;16.00;99.90;;;;;;4955958;29;20176;-74
2021/07/24 01:53:14;;;;;;;8.93;7.80;;;16.10;99.90;;;;;;4955801;29;21029;-73
2021/07/24 01:55:47;;;;;;;11.17;7.80;;;16.00;99.90;;;;;;4956071;29;20201;-73
2021/07/24 01:58:16;;;;;;;11.90;8.63;;;16.00;99.90;;;;;;4971888;28;20184;-73
2021/07/24 02:00:45;;;;;;;11.27;7.70;;;16.00;99.90;;;;;;4955419;29;20212;-73
2021/07/24 02:03:14;;;;;;;9.67;7.60;;;16.00;99.90;;;;;;4954854;29;20170;-73
2021/07/24 02:05:46;;;;;;;12.53;7.40;;;16.00;99.90;;;;;;4955630;29;20673;-73
2021/07/24 02:08:15;;;;;;;9.53;7.63;;;16.00;99.90;;;;;;4955453;29;20173;-73
2021/07/24 02:10:42;;;;;;;10.00;8.07;;;16.00;99.90;;;;;;4955430;29;20188;-73
2021/07/24 02:13:08;;;;;;;9.67;7.53;;;15.90;99.90;;;;;;4955574;29;20170;-74
2021/07/24 02:15:34;;;;;;;9.83;7.63;;;15.90;99.90;;;;;;4955256;29;20252;-73
2021/07/24 02:18:00;;;;;;;9.33;7.33;;;15.90;99.90;;;;;;4955493;29;20648;-73
2021/07/24 02:20:26;;;;;;;9.33;7.40;;;15.80;99.90;;;;;;4955042;29;20185;-74
2021/07/24 02:22:51;;;;;;;11.40;7.00;;;15.80;99.90;;;;;;4955658;29;20184;-74
2021/07/24 02:25:17;;;;;;;11.17;7.67;;;15.80;99.90;;;;;;4955135;29;20181;-74
2021/07/24 02:27:46;;;;;;;10.70;7.50;;;15.80;99.90;;;;;;4956481;29;20170;-74
2021/07/24 02:30:13;;;;;;;9.40;7.10;;;15.80;99.90;;;;;;4954664;29;20181;-73
2021/07/24 02:32:38;;;;;;;11.30;7.77;;;15.70;99.90;;;;;;4955155;29;20176;-73
2021/07/24 02:35:04;;;;;;;10.67;7.37;;;15.70;99.90;;;;;;4954939;29;20186;-73
2021/07/24 02:37:30;;;;;;;11.70;7.73;;;15.70;99.90;;;;;;4954928;29;20212;-74
2021/07/24 02:39:55;;;;;;;9.37;7.27;;;15.70;99.90;;;;;;4954831;29;20181;-73
2021/07/24 02:42:21;;;;;;;10.87;7.57;;;15.70;99.90;;;;;;4954714;29;20213;-73
2021/07/24 02:44:46;;;;;;;10.57;7.60;;;15.70;99.90;;;;;;4954747;29;20205;-73
2021/07/24 02:47:12;;;;;;;9.73;7.40;;;15.70;99.90;;;;;;4954836;29;20201;-73
2021/07/24 02:49:38;;;;;;;10.60;7.13;;;15.70;99.90;;;;;;4954642;29;20209;-73
2021/07/24 02:52:04;;;;;;;9.07;7.37;;;15.60;99.90;;;;;;4954763;29;20173;-73
2021/07/24 02:54:30;;;;;;;9.73;7.30;;;15.60;99.90;;;;;;4953884;28;20312;-73
2021/07/24 02:56:55;;;;;;;10.63;7.63;;;15.60;99.90;;;;;;4954276;29;20205;-73
2021/07/24 02:59:21;;;;;;;8.90;6.93;;;15.70;99.90;;;;;;4953645;29;20557;-73
2021/07/24 03:01:46;;;;;;;12.00;7.43;;;15.60;99.90;;;;;;4954437;29;20703;-74
2021/07/24 03:04:12;;;;;;;9.37;6.40;;;15.60;99.90;;;;;;4954439;29;20653;-74
2021/07/24 03:06:37;;;;;;;9.77;7.50;;;15.50;99.90;;;;;;4954334;29;20212;-73
2021/07/24 03:09:06;;;;;;;9.23;6.87;;;15.50;99.90;;;;;;4953934;29;20666;-73
2021/07/24 03:11:32;;;;;;;8.20;6.60;;;15.50;99.90;;;;;;4954340;29;20551;-73
2021/07/24 03:13:58;;;;;;;9.90;7.20;;;15.50;99.90;;;;;;4954210;29;20174;-73
2021/07/24 03:16:23;;;;;;;8.63;6.63;;;15.50;99.90;;;;;;4970099;28;20676;-73
2021/07/24 03:18:49;;;;;;;9.93;7.17;;;15.50;99.90;;;;;;4954273;28;20205;-73
2021/07/24 03:21:14;;;;;;;10.07;6.73;;;15.50;99.90;;;;;;4954074;29;20209;-73
2021/07/24 03:23:40;;;;;;;9.63;6.70;;;15.50;99.90;;;;;;4954204;29;20185;-73
2021/07/24 03:26:08;;;;;;;9.43;7.03;;;15.40;99.90;;;;;;4954034;29;20201;-73
2021/07/24 03:28:34;;;;;;;9.07;7.00;;;15.40;99.90;;;;;;4953820;29;20320;-73
2021/07/24 03:31:00;;;;;;;10.73;6.30;;;15.40;99.90;;;;;;4953933;29;20201;-73
2021/07/24 03:33:25;;;;;;;9.80;6.70;;;15.40;99.90;;;;;;4953830;29;20224;-73
2021/07/24 03:35:51;;;;;;;12.17;7.97;;;15.40;99.90;;;;;;4954005;29;20248;-73
2021/07/24 03:38:16;;;;;;;11.27;7.43;;;15.40;99.90;;;;;;4953949;29;20189;-73
2021/07/24 03:40:43;;;;;;;9.00;7.63;;;15.40;99.90;;;;;;4953715;29;20212;-73
2021/07/24 03:43:09;;;;;;;9.17;6.90;;;15.30;99.90;;;;;;4954163;28;20590;-73
2021/07/24 03:45:35;;;;;;;11.10;6.97;;;15.30;99.90;;;;;;4953879;29;20197;-74
2021/07/24 03:48:02;;;;;;;9.17;6.90;;;15.30;99.90;;;;;;4953905;29;20532;-73
2021/07/24 03:50:28;;;;;;;9.30;7.03;;;15.30;99.90;;;;;;4953458;29;20174;-73
2021/07/24 03:52:53;;;;;;;9.83;6.97;;;15.30;99.90;;;;;;4953128;29;20197;-73
2021/07/24 03:55:19;;;;;;;9.20;6.93;;;15.30;99.90;;;;;;4953460;29;20656;-73
2021/07/24 03:57:45;;;;;;;9.47;6.33;;;15.30;99.90;;;;;;4953530;29;20546;-73
2021/07/24 04:00:11;;;;;;;10.10;6.67;;;15.30;99.90;;;;;;4969584;28;20554;-73
2021/07/24 04:02:39;;;;;;;8.57;6.67;;;15.40;99.90;;;;;;4953242;29;20296;-73
2021/07/24 04:05:05;;;;;;;10.13;6.93;;;15.30;99.90;;;;;;4953219;28;20178;-73
2021/07/24 04:07:31;;;;;;;9.43;6.30;;;15.40;99.90;;;;;;4953167;29;20264;-73
2021/07/24 04:09:56;;;;;;;8.40;6.70;;;15.40;99.90;;;;;;4953075;29;20182;-73
2021/07/24 04:12:22;;;;;;;8.40;6.83;;;15.40;99.90;;;;;;4952824;29;20284;-74
2021/07/24 04:14:47;;;;;;;8.77;6.50;;;15.40;99.90;;;;;;4953198;29;20173;-74
2021/07/24 04:17:13;;;;;;;9.33;6.80;;;15.40;99.90;;;;;;4954391;29;20743;-73
2021/07/24 04:19:38;;;;;;;9.50;6.20;;;15.50;99.90;;;;;;4952669;29;20555;-73
2021/07/24 04:22:04;;;;;;;8.57;6.53;;;15.50;99.90;;;;;;4952833;29;20217;-73
2021/07/24 04:24:29;;;;;;;10.27;6.77;;;15.50;99.90;;;;;;4952980;29;20181;-73
2021/07/24 04:26:55;;;;;;;9.37;6.67;;;15.50;99.90;;;;;;4953057;29;20251;-73
2021/07/24 04:29:24;;;;;;;8.27;6.47;;;15.60;99.90;;;;;;4954080;29;20264;-73
2021/07/24 04:31:50;;;;;;;8.03;6.43;;;15.60;99.90;;;;;;4952942;29;20286;-74
2021/07/24 04:34:16;;;;;;;8.70;6.40;;;15.70;99.90;;;;;;4953040;29;20177;-73
2021/07/24 04:36:42;;;;;;;8.70;6.67;;;15.70;99.90;;;;;;4952708;29;20224;-73
2021/07/24 04:39:07;;;;;;;8.20;6.03;;;15.80;99.90;;;;;;4952835;29;20181;-73
2021/07/24 04:41:33;;;;;;;9.30;6.30;;;15.80;99.90;;;;;;4952548;29;20228;-73
2021/07/24 04:43:58;;;;;;;8.73;6.10;;;15.80;99.90;;;;;;4952833;29;20208;-73
2021/07/24 04:46:24;;;;;;;8.70;7.07;;;15.90;99.90;;;;;;4952839;29;20193;-73
2021/07/24 04:48:49;;;;;;;10.37;6.57;;;15.90;99.90;;;;;;4954767;29;20263;-72
2021/07/24 04:51:16;;;;;;;9.13;6.63;;;15.90;99.90;;;;;;4953148;29;20236;-72
2021/07/24 04:53:45;;;;;;;8.90;6.17;;;16.00;99.90;;;;;;4953401;28;20189;-72
2021/07/24 04:56:11;;;;;;;10.80;6.37;;;16.00;99.90;;;;;;4953208;29;20201;-71
2021/07/24 04:58:36;;;;;;;9.53;6.30;;;16.00;99.90;;;;;;4953168;29;20174;-71
2021/07/24 05:01:02;;;;;;;11.17;6.77;;;16.10;99.90;;;;;;4953415;29;20221;-72
2021/07/24 05:03:27;;;;;;;8.13;5.93;;;16.20;99.90;;;;;;4953325;29;20264;-72
2021/07/24 05:05:53;;;;;;;8.50;6.47;;;16.30;99.90;;;;;;4954558;28;20253;-72
2021/07/24 05:08:20;;;;;;;7.03;5.93;;;16.30;99.90;;;;;;4945832;28;20205;-71
2021/07/24 05:10:46;;;;;;;11.43;5.97;;;16.30;99.90;;;;;;4946144;29;20270;-74
2021/07/24 05:13:11;;;;;;;7.47;6.07;;;16.30;99.90;;;;;;4946286;29;20221;-75
2021/07/24 05:15:40;;;;;;;9.23;6.53;;;16.30;99.90;;;;;;4926277;29;20225;-73
2021/07/24 05:18:05;;;;;;;8.30;6.33;;;16.30;99.90;;;;;;4948428;29;20181;-73
2021/07/24 05:20:31;;;;;;;8.00;5.90;;;16.30;99.90;;;;;;4956606;28;20178;-76
2021/07/24 05:22:57;;;;;;;9.87;6.50;;;16.40;99.90;;;;;;4956628;29;20589;-75
2021/07/24 05:25:22;;;;;;;8.80;6.00;;;16.40;99.90;;;;;;4956411;29;20193;-75
2021/07/24 05:27:48;;;;;;;9.70;5.87;;;16.40;99.90;;;;;;4956660;29;20177;-73
2021/07/24 05:30:14;;;;;;;9.60;6.33;;;16.50;99.90;;;;;;4940576;29;20180;-74
2021/07/24 05:32:41;;;;;;;8.17;6.03;;;16.60;99.90;;;;;;4956786;29;20180;-74
2021/07/24 05:35:07;;;;;;;8.93;6.23;;;16.60;99.90;;;;;;4956708;29;20178;-74
2021/07/24 05:37:32;;;;;;;8.47;5.67;;;16.70;99.90;;;;;;4957877;29;20192;-74
2021/07/24 05:39:58;;;;;;;10.97;8.23;;;16.80;99.90;;;;;;4957103;29;20558;-73
2021/07/24 05:42:24;;;;;;;9.13;6.43;;;16.80;99.90;;;;;;4953655;29;20210;-74
2021/07/24 05:44:49;;;;;;;9.03;6.33;;;16.80;99.90;;;;;;4974401;28;20185;-74
2021/07/24 05:47:15;;;;;;;10.47;6.60;;;16.80;99.90;;;;;;4938863;29;20236;-75
2021/07/24 05:49:40;;;;;;;7.60;6.00;;;16.80;99.90;;;;;;4922028;29;20649;-73
2021/07/24 05:52:08;;;;;;;9.90;6.53;;;17.00;99.90;;;;;;4937452;29;20606;-74
2021/07/24 05:54:35;;;;;;;8.77;5.87;;;17.30;99.90;;;;;;4921585;29;20726;-75
2021/07/24 05:57:01;;;;;;;6.23;5.50;;;18.00;99.90;;;;;;4937523;29;20217;-75
2021/07/24 05:59:27;;;;;;;7.87;5.50;;;18.50;99.90;;;;;;4921883;29;20587;-74
2021/07/24 06:01:52;;;;;;;7.27;5.30;;;18.90;99.90;;;;;;4938513;29;20769;-75
2021/07/24 06:04:18;;;;;;;7.27;5.47;;;19.30;99.90;;;;;;4938188;29;20249;-76
2021/07/24 06:06:50;;;;;;;7.80;5.20;;;19.50;99.90;;;;;;4925192;29;20199;-77
2021/07/24 06:09:37;;;;;;;6.97;5.50;;;19.70;99.90;;;;;;4926793;29;20190;-77
2021/07/24 06:13:01;;;;;;;6.20;5.40;;;19.70;99.90;;;;;;4960086;28;20232;-77
2021/07/24 06:15:30;;;;;;;10.33;5.63;;;20.10;99.90;;;;;;4958943;28;20189;-77
2021/07/24 06:18:30;;;;;;;8.33;4.97;;;20.70;99.90;;;;;;4958797;29;20276;-77
2021/07/24 06:21:30;;;;;;;7.67;4.53;;;20.90;99.90;;;;;;4960197;29;20251;-77
2021/07/24 06:24:24;;;;;;;6.77;4.60;;;21.50;99.90;;;;;;4957836;28;20201;-77
2021/07/24 06:26:50;;;;;;;6.43;4.53;;;21.60;99.90;;;;;;4960973;28;20248;-77
2021/07/24 06:29:15;;;;;;;5.20;4.70;;;21.60;99.90;;;;;;4954530;28;20181;-75
2021/07/24 06:31:41;;;;;;;7.40;5.30;;;21.50;99.90;;;;;;4955792;28;20238;-73
2021/07/24 06:34:22;;;;;;;5.87;5.10;;;21.10;99.90;;;;;;4958245;28;20182;-75
2021/07/24 06:36:47;;;;;;;5.27;4.77;;;20.70;99.90;;;;;;4958103;28;20220;-74
2021/07/24 06:39:14;;;;;;;8.70;5.47;;;20.60;99.90;;;;;;4957485;28;20222;-74
2021/07/24 06:41:41;;;;;;;9.80;5.47;;;20.60;99.90;;;;;;4959563;29;20630;-75
2021/07/24 06:44:07;;;;;;;6.93;4.97;;;20.50;99.90;;;;;;4957892;29;20184;-74
2021/07/24 06:46:32;;;;;;;7.47;5.73;;;20.60;99.90;;;;;;4950680;29;20293;-73
2021/07/24 06:48:59;;;;;;;8.67;5.47;;;20.80;99.90;;;;;;4937211;29;20308;-71
2021/07/24 06:51:25;;;;;;;8.47;5.47;;;20.80;99.90;;;;;;4936699;29;20561;-71
2021/07/24 06:53:50;;;;;;;6.73;5.30;;;21.10;99.90;;;;;;4920684;29;20190;-74
2021/07/24 06:56:16;;;;;;;9.93;5.47;;;21.20;99.90;;;;;;4921041;29;20233;-72
2021/07/24 06:58:41;;;;;;;7.87;6.03;;;21.30;99.90;;;;;;4935961;29;20178;-72
2021/07/24 07:01:07;;;;;;;6.57;5.20;;;21.40;99.90;;;;;;4935600;29;20248;-72
2021/07/24 07:03:33;;;;;;;6.67;5.37;;;21.60;99.90;;;;;;4935459;29;20189;-73
2021/07/24 07:05:59;;;;;;;7.23;4.87;;;21.70;99.90;;;;;;4936681;29;20206;-74
2021/07/24 07:08:25;;;;;;;7.50;5.60;;;21.90;99.90;;;;;;4919592;29;20186;-74
2021/07/24 07:10:51;;;;;;;7.00;5.60;;;22.00;99.90;;;;;;4921438;29;20601;-72
2021/07/24 07:13:17;;;;;;;8.63;6.10;;;22.10;99.90;;;;;;4920984;29;20248;-72
2021/07/24 07:15:43;;;;;;;12.97;6.27;;;22.30;99.90;;;;;;4919956;29;20210;-72
2021/07/24 07:18:09;;;;;;;14.70;5.90;;;22.60;99.90;;;;;;4935997;29;20186;-73
2021/07/24 07:20:34;;;;;;;9.87;6.40;;;22.60;99.90;;;;;;4935194;29;20194;-72
2021/07/24 07:23:00;;;;;;;11.33;5.77;;;22.70;99.90;;;;;;4935272;29;20186;-72
2021/07/24 07:25:25;;;;;;;10.33;5.80;;;22.80;99.90;;;;;;4935355;29;20187;-73
2021/07/24 07:27:51;;;;;;;13.17;5.57;;;22.80;99.90;;;;;;4919431;29;20182;-73
2021/07/24 07:30:18;;;;;;;18.70;6.83;;;22.70;99.90;;;;;;4935094;29;20261;-74
2021/07/24 07:32:43;;;;;;;8.17;5.83;;;22.60;99.90;;;;;;4935357;29;20554;-73
2021/07/24 07:35:09;;;;;;;9.37;5.47;;;22.80;99.90;;;;;;4919093;29;20193;-74
2021/07/24 07:37:45;;;;;;;9.70;5.80;;;22.90;99.90;;;;;;4919113;29;20225;-75
2021/07/24 07:40:12;;;;;;;9.23;6.10;;;23.00;99.90;;;;;;4934820;29;20511;-73
2021/07/24 07:42:37;;;;;;;13.83;6.20;;;23.10;99.90;;;;;;4919376;29;20245;-73
2021/07/24 07:45:03;;;;;;;8.67;5.90;;;23.20;99.90;;;;;;4919220;29;20219;-72
2021/07/24 07:47:29;;;;;;;8.10;6.27;;;23.30;99.90;;;;;;4936226;29;20206;-73
2021/07/24 07:49:54;;;;;;;8.90;6.23;;;23.30;99.90;;;;;;4919265;29;20684;-73
2021/07/24 07:52:20;;;;;;;8.53;5.90;;;23.40;99.90;;;;;;4935835;29;20289;-74
2021/07/24 07:54:45;;;;;;;9.07;5.87;;;23.40;99.90;;;;;;4936045;29;20178;-74
2021/07/24 07:57:11;;;;;;;8.70;5.87;;;23.50;99.90;;;;;;4934615;29;20277;-73
2021/07/24 07:59:36;;;;;;;9.60;6.00;;;23.30;99.90;;;;;;4934141;29;20190;-74
2021/07/24 08:02:02;;;;;;;9.23;6.00;;;23.30;99.90;;;;;;4934404;29;20217;-74
2021/07/24 08:04:28;;;;;;;7.07;5.47;;;23.40;99.90;;;;;;4934406;29;20261;-73
2021/07/24 08:06:53;;;;;;;8.00;6.10;;;23.70;99.90;;;;;;4935302;29;20190;-73
2021/07/24 08:09:19;;;;;;;9.57;5.93;;;23.60;99.90;;;;;;4935533;29;20257;-74
2021/07/24 08:11:44;;;;;;;8.83;6.00;;;23.60;99.90;;;;;;4934316;29;20196;-74
2021/07/24 08:14:10;;;;;;;11.60;6.20;;;23.50;99.90;;;;;;4918681;29;20265;-73
2021/07/24 08:16:35;;;;;;;13.43;6.37;;;23.50;99.90;;;;;;4934042;29;20194;-73
2021/07/24 08:19:01;;;;;;;7.10;6.27;;;23.50;99.90;;;;;;4934057;29;20182;-73
2021/07/24 08:21:27;;;;;;;8.43;5.87;;;23.60;99.90;;;;;;4934372;29;20288;-73
2021/07/24 08:24:26;;;;;;;191.40;17.80;;;23.60;99.90;;;;;;5070487;28;20553;-75
2021/07/24 08:26:51;;;;;;;7.43;6.43;;;23.70;99.90;;;;;;5069605;28;20213;-74
2021/07/24 08:29:18;;;;;;;8.10;6.40;;;23.70;99.90;;;;;;5068990;28;20189;-75
2021/07/24 08:31:43;;;;;;;7.20;6.43;;;23.50;99.90;;;;;;5070435;28;20176;-74
2021/07/24 08:34:09;;;;;;;10.60;6.47;;;23.40;99.90;;;;;;5069371;28;20181;-74
2021/07/24 08:36:35;;;;;;;7.90;6.37;;;23.40;99.90;;;;;;5070370;28;20750;-76
2021/07/24 08:39:01;;;;;;;9.73;7.00;;;23.40;99.90;;;;;;5068906;28;20180;-73
2021/07/24 08:41:26;;;;;;;14.17;7.80;;;23.40;99.90;;;;;;5067928;28;20173;-73
2021/07/24 08:43:52;;;;;;;8.40;6.97;;;23.30;99.90;;;;;;5068765;28;20201;-73
2021/07/24 08:46:19;;;;;;;7.07;6.07;;;23.20;99.90;;;;;;5050960;28;20715;-72
2021/07/24 08:48:44;;;;;;;10.57;6.47;;;23.20;99.90;;;;;;5067205;28;20181;-72
2021/07/24 08:51:10;;;;;;;9.63;6.57;;;23.20;99.90;;;;;;5067576;28;20178;-73
2021/07/24 08:53:36;;;;;;;13.73;7.00;;;23.20;99.90;;;;;;5067598;28;20188;-73
2021/07/24 08:56:05;;;;;;;8.27;6.77;;;23.30;99.90;;;;;;5051004;28;20254;-73
2021/07/24 08:58:32;;;;;;;8.13;6.50;;;23.30;99.90;;;;;;5068477;28;20174;-72
2021/07/24 09:00:58;;;;;;;9.73;6.50;;;23.40;99.90;;;;;;5050836;28;20251;-72
2021/07/24 09:03:23;;;;;;;9.93;6.10;;;23.40;99.90;;;;;;5050555;28;20688;-72
2021/07/24 09:05:50;;;;;;;8.53;6.80;;;23.50;99.90;;;;;;5050732;28;20198;-73
2021/07/24 09:08:16;;;;;;;9.77;6.60;;;23.70;99.90;;;;;;5050783;28;20177;-73
2021/07/24 09:10:42;;;;;;;9.83;6.90;;;23.90;99.90;;;;;;5068023;28;20265;-73
2021/07/24 09:13:07;;;;;;;7.83;6.30;;;24.10;99.90;;;;;;5068252;28;20260;-73
2021/07/24 09:15:33;;;;;;;9.23;7.20;;;24.40;99.90;;;;;;5068321;28;20236;-73
2021/07/24 09:17:58;;;;;;;8.93;6.67;;;24.40;99.90;;;;;;5050574;28;20181;-73
2021/07/24 09:20:26;;;;;;;9.40;6.73;;;24.50;99.90;;;;;;5066738;28;20265;-73
2021/07/24 09:22:53;;;;;;;8.93;6.53;;;24.50;99.90;;;;;;5067778;28;20300;-73
2021/07/24 09:25:22;;;;;;;8.83;6.43;;;24.60;99.90;;;;;;5050493;28;20671;-73
2021/07/24 09:27:52;;;;;;;12.88;6.95;;;24.70;99.90;;;;;;5050410;28;20177;-73
2021/07/24 09:30:24;;;;;;;8.43;7.53;;;24.80;99.90;;;;;;5066640;28;20170;-73
2021/07/24 09:33:05;;;;;;;9.25;6.57;;;25.00;99.90;;;;;;5067969;28;20209;-73
2021/07/24 09:35:53;;;;;;;7.63;6.55;;;25.10;99.90;;;;;;5056083;28;20194;-73
2021/07/24 09:38:28;;;;;;;8.43;7.10;;;25.00;99.90;;;;;;5051733;28;20190;-73
2021/07/24 09:40:55;;;;;;;8.50;6.63;;;25.10;99.90;;;;;;5054544;28;20220;-73
2021/07/24 09:43:41;;;;;;;8.77;6.63;;;25.20;99.90;;;;;;5036795;28;20198;-74
2021/07/24 09:46:17;;;;;;;9.50;6.97;;;25.30;99.90;;;;;;5053950;28;20217;-74
2021/07/24 09:48:47;;;;;;;9.27;6.60;;;25.40;99.90;;;;;;5036787;28;20197;-75
2021/07/24 09:51:13;;;;;;;12.20;7.00;;;25.60;99.90;;;;;;5054502;28;20166;-76
2021/07/24 09:53:45;;;;;;;8.55;6.55;;;25.70;99.90;;;;;;5020071;28;20193;-75
2021/07/24 09:56:17;;;;;;;7.93;7.10;;;25.70;99.90;;;;;;5053940;28;20201;-75
2021/07/24 09:58:46;;;;;;;9.52;7.25;;;25.80;99.90;;;;;;5036889;28;20170;-75
2021/07/24 10:01:15;;;;;;;8.67;6.87;;;25.80;99.90;;;;;;5036631;28;20224;-75
2021/07/24 10:03:41;;;;;;;9.30;6.63;;;25.70;99.90;;;;;;5036843;28;20206;-76
2021/07/24 10:06:13;;;;;;;11.80;7.30;;;25.80;99.90;;;;;;5052647;28;20190;-74
2021/07/24 10:08:40;;;;;;;8.38;6.70;;;25.80;99.90;;;;;;5052748;28;20253;-75
2021/07/24 10:11:06;;;;;;;9.82;8.68;;;25.90;99.90;;;;;;5036682;28;20213;-75
2021/07/24 10:13:32;;;;;;;8.35;7.32;;;26.00;99.90;;;;;;5036372;28;20660;-72
2021/07/24 10:15:57;;;;;;;9.68;6.90;;;26.20;99.90;;;;;;5052764;28;20277;-72
2021/07/24 10:18:23;;;;;;;8.32;6.93;;;26.30;99.90;;;;;;5052743;28;20217;-72
2021/07/24 10:20:50;;;;;;;9.27;7.05;;;26.50;99.90;;;;;;5052225;28;20536;-72
2021/07/24 10:23:19;;;;;;;11.38;7.45;;;26.60;99.90;;;;;;5052451;28;20604;-72
2021/07/24 10:25:52;;;;;;;11.27;6.80;;;26.70;99.90;;;;;;5053701;28;20183;-72
2021/07/24 10:28:31;;;;;;;9.07;6.63;;;26.60;99.90;;;;;;5052670;28;20181;-73
2021/07/24 10:30:56;;;;;;;8.18;7.15;;;26.60;99.90;;;;;;5019961;28;20685;-73
2021/07/24 10:33:22;;;;;;;8.10;6.82;;;26.80;99.90;;;;;;5035648;28;20178;-75
2021/07/24 10:35:47;;;;;;;9.85;7.30;;;26.90;99.90;;;;;;5036013;28;20194;-74
2021/07/24 10:38:30;;;;;;;11.88;7.03;;;27.00;99.90;;;;;;5053596;28;20209;-74
2021/07/24 10:41:16;;;;;;;9.60;7.28;;;27.20;99.90;;;;;;5052179;28;20181;-74
2021/07/24 10:44:00;;;;;;;9.27;6.80;;;27.20;99.90;;;;;;5048228;28;20217;-75
2021/07/24 10:46:58;;;;;;;8.30;6.93;;;27.30;99.90;;;;;;5052466;28;20197;-74
2021/07/24 10:49:44;;;;;;;11.40;7.18;;;27.30;99.90;;;;;;5051836;28;20239;-75
2021/07/24 10:52:10;;;;;;;9.32;7.32;;;27.50;99.90;;;;;;5052969;28;20186;-74
2021/07/24 10:54:51;;;;;;;9.18;7.45;;;27.60;99.90;;;;;;5019305;28;20708;-74
2021/07/24 10:57:54;;;;;;;9.85;7.32;;;27.50;99.90;;;;;;5053158;28;20209;-75
2021/07/24 11:00:20;;;;;;;10.52;6.97;;;27.50;99.90;;;;;;5053083;28;20177;-74
2021/07/24 11:02:49;;;;;;;13.13;10.18;;;27.60;99.90;;;;;;5052959;28;20197;-74
2021/07/24 11:05:28;;;;;;;8.50;7.47;;;27.70;99.90;;;;;;5052001;28;20188;-74
2021/07/24 11:07:54;;;;;;;8.35;7.40;;;27.80;99.90;;;;;;5051615;28;20265;-75
2021/07/24 11:10:20;;;;;;;8.00;7.20;;;27.90;99.90;;;;;;5051581;28;20789;-74
2021/07/24 11:12:46;;;;;;;11.98;7.47;;;27.90;99.90;;;;;;5052942;28;20257;-75
2021/07/24 11:15:31;;;;;;;8.18;7.32;;;27.90;99.90;;;;;;5051635;28;20258;-74
2021/07/24 11:18:18;;;;;;;8.02;6.82;;;28.00;99.90;;;;;;5051830;28;20178;-74
2021/07/24 11:20:47;;;;;;;9.63;7.40;;;28.00;99.90;;;;;;5051358;28;20601;-74
2021/07/24 11:23:13;;;;;;;11.77;7.40;;;27.80;99.90;;;;;;5052488;28;20290;-74
2021/07/24 11:25:39;;;;;;;9.95;7.30;;;27.80;99.90;;;;;;5034861;28;20214;-74
2021/07/24 11:28:05;;;;;;;9.25;7.50;;;27.80;99.90;;;;;;5052711;28;20697;-75
2021/07/24 11:30:30;;;;;;;11.10;7.22;;;27.80;99.90;;;;;;5018095;28;20209;-75
2021/07/24 11:32:56;;;;;;;9.05;7.30;;;27.90;99.90;;;;;;5052545;28;20229;-74
2021/07/24 11:35:30;;;;;;;9.18;7.30;;;27.90;99.90;;;;;;5034857;28;20253;-75
2021/07/24 11:37:55;;;;;;;8.25;7.22;;;28.00;99.90;;;;;;5052630;28;20563;-74
2021/07/24 11:40:23;;;;;;;10.05;7.53;;;28.10;99.90;;;;;;5051452;28;20178;-76
2021/07/24 11:43:02;;;;;;;11.85;7.40;;;28.00;99.90;;;;;;5051304;28;20201;-77
2021/07/24 11:45:29;;;;;;;9.70;7.50;;;28.00;99.90;;;;;;5034690;28;20171;-75
2021/07/24 11:48:13;;;;;;;8.75;7.13;;;28.00;99.90;;;;;;5049349;28;20205;-75
2021/07/24 11:50:39;;;;;;;12.85;7.45;;;28.00;99.90;;;;;;5030963;28;20253;-74
2021/07/24 11:53:05;;;;;;;9.13;7.60;;;27.90;99.90;;;;;;5031264;28;20253;-74
2021/07/24 11:55:32;;;;;;;9.60;7.80;;;28.00;99.90;;;;;;5031632;28;20274;-77
2021/07/24 11:58:13;;;;;;;9.68;7.43;;;28.20;99.90;;;;;;5031085;28;20182;-75
2021/07/24 12:00:42;;;;;;;12.07;7.85;;;28.20;99.90;;;;;;5014617;28;20175;-74
2021/07/24 12:03:17;;;;;;;8.80;7.28;;;28.20;99.90;;;;;;5014501;28;20199;-74
2021/07/24 12:05:42;;;;;;;9.25;7.10;;;28.30;99.90;;;;;;5014889;28;20695;-74
2021/07/24 12:08:08;;;;;;;8.70;7.85;;;28.40;99.90;;;;;;5014788;28;20171;-75
2021/07/24 12:10:39;;;;;;;10.82;8.23;;;28.40;99.90;;;;;;5014198;28;20167;-75
2021/07/24 12:13:05;;;;;;;8.80;7.90;;;28.50;99.90;;;;;;5014913;28;20191;-75
2021/07/24 12:15:59;;;;;;;9.93;7.78;;;28.50;99.90;;;;;;5014515;28;20206;-76
2021/07/24 12:18:34;;;;;;;11.57;7.50;;;28.50;99.90;;;;;;5030895;28;20173;-76
2021/07/24 12:21:16;;;;;;;12.65;7.63;;;28.40;99.90;;;;;;5030919;28;20189;-76
2021/07/24 12:23:58;;;;;;;8.10;7.38;;;28.30;99.90;;;;;;5014350;28;20230;-74
2021/07/24 12:26:28;;;;;;;8.90;7.65;;;28.20;99.90;;;;;;5032150;28;20191;-76
2021/07/24 12:28:54;;;;;;;10.13;7.93;;;28.20;99.90;;;;;;5014845;28;20171;-75
2021/07/24 12:31:21;;;;;;;8.98;7.85;;;28.20;99.90;;;;;;5031920;28;20762;-72
2021/07/24 12:34:13;;;;;;;8.27;7.40;;;28.00;99.90;;;;;;5032066;28;20171;-75
2021/07/24 12:37:08;;;;;;;10.25;8.05;;;27.80;99.90;;;;;;5028601;28;20617;-75
2021/07/24 12:39:37;;;;;;;9.93;8.15;;;27.60;99.90;;;;;;5030410;28;20194;-75
2021/07/24 12:42:09;;;;;;;11.13;9.48;;;27.50;99.90;;;;;;5030674;28;20167;-75
2021/07/24 12:44:59;;;;;;;9.73;8.70;;;27.30;99.90;;;;;;5030671;28;20662;-75
2021/07/24 12:47:26;;;;;;;8.85;7.95;;;27.50;99.90;;;;;;5030468;28;20198;-76
2021/07/24 12:49:52;;;;;;;10.43;8.10;;;27.40;99.90;;;;;;5030308;28;20179;-77
2021/07/24 12:52:24;;;;;;;8.93;8.02;;;27.50;99.90;;;;;;5033091;28;20256;-76
2021/07/24 12:55:00;;;;;;;9.90;8.23;;;27.50;99.90;;;;;;5051556;28;20178;-75